sensor_id;sensor_type;location;lat;lon;timestamp;P1;durP1;ratioP1;P2;durP2;ratioP2
36787;SDS011;22738;45.560;9.434;2022-09-12T00:05:51;3.58;;;1.60;;
36787;SDS011;22738;45.560;9.434;2022-09-12T00:12:33;3.55;;;1.40;;
36787;SDS011;22738;45.560;9.434;2022-09-12T00:19:14;3.50;;;1.30;;
36787;SDS011;22738;45.560;9.434;2022-09-12T00:25:55;2.20;;;1.50;;
36787;SDS011;22738;45.560;9.434;2022-09-12T00:32:36;1.88;;;1.33;;
36787;SDS011;22738;45.560;9.434;2022-09-12T00:39:17;2.83;;;1.50;;
36787;SDS011;22738;45.560;9.434;2022-09-12T00:46:01;3.00;;;1.80;;
36787;SDS011;22738;45.560;9.434;2022-09-12T00:52:53;1.50;;;1.17;;
36787;SDS011;22738;45.560;9.434;2022-09-12T00:59:46;3.90;;;1.40;;
36787;SDS011;22738;45.560;9.434;2022-09-12T01:06:34;2.55;;;1.55;;
36787;SDS011;22738;45.560;9.434;2022-09-12T01:13:19;2.25;;;1.58;;
36787;SDS011;22738;45.560;9.434;2022-09-12T01:47:58;2.33;;;1.48;;
36787;SDS011;22738;45.560;9.434;2022-09-12T01:54:50;3.13;;;1.52;;
36787;SDS011;22738;45.560;9.434;2022-09-12T02:01:49;3.50;;;1.55;;
36787;SDS011;22738;45.560;9.434;2022-09-12T02:08:56;2.30;;;1.38;;
36787;SDS011;22738;45.560;9.434;2022-09-12T02:15:42;1.65;;;1.20;;
36787;SDS011;22738;45.560;9.434;2022-09-12T02:22:29;2.58;;;1.50;;
36787;SDS011;22738;45.560;9.434;2022-09-12T02:29:12;4.25;;;1.40;;
36787;SDS011;22738;45.560;9.434;2022-09-12T02:35:57;4.05;;;1.27;;
36787;SDS011;22738;45.560;9.434;2022-09-12T02:42:46;3.17;;;1.65;;
36787;SDS011;22738;45.560;9.434;2022-09-12T02:49:27;4.18;;;1.65;;
36787;SDS011;22738;45.560;9.434;2022-09-12T02:56:10;3.92;;;1.40;;
36787;SDS011;22738;45.560;9.434;2022-09-12T03:03:18;2.05;;;1.40;;
36787;SDS011;22738;45.560;9.434;2022-09-12T03:17:22;2.85;;;1.48;;
36787;SDS011;22738;45.560;9.434;2022-09-12T03:24:34;3.50;;;1.63;;
36787;SDS011;22738;45.560;9.434;2022-09-12T03:31:22;2.72;;;1.40;;
36787;SDS011;22738;45.560;9.434;2022-09-12T03:38:03;3.33;;;1.60;;
36787;SDS011;22738;45.560;9.434;2022-09-12T03:51:28;7.38;;;1.77;;
36787;SDS011;22738;45.560;9.434;2022-09-12T03:58:09;2.30;;;1.70;;
36787;SDS011;22738;45.560;9.434;2022-09-12T04:04:50;6.28;;;1.48;;
36787;SDS011;22738;45.560;9.434;2022-09-12T04:11:31;5.53;;;2.28;;
36787;SDS011;22738;45.560;9.434;2022-09-12T04:18:14;4.07;;;1.60;;
36787;SDS011;22738;45.560;9.434;2022-09-12T04:24:55;3.03;;;1.80;;
36787;SDS011;22738;45.560;9.434;2022-09-12T04:31:36;4.63;;;2.08;;
36787;SDS011;22738;45.560;9.434;2022-09-12T04:38:18;3.13;;;1.55;;
36787;SDS011;22738;45.560;9.434;2022-09-12T04:44:59;4.07;;;1.75;;
36787;SDS011;22738;45.560;9.434;2022-09-12T04:51:41;2.35;;;1.65;;
36787;SDS011;22738;45.560;9.434;2022-09-12T04:58:22;8.10;;;2.97;;
36787;SDS011;22738;45.560;9.434;2022-09-12T05:05:04;6.43;;;2.30;;
36787;SDS011;22738;45.560;9.434;2022-09-12T05:11:45;2.92;;;1.90;;
36787;SDS011;22738;45.560;9.434;2022-09-12T05:18:26;2.38;;;1.63;;
36787;SDS011;22738;45.560;9.434;2022-09-12T05:25:08;2.45;;;1.60;;
36787;SDS011;22738;45.560;9.434;2022-09-12T05:31:49;4.50;;;1.85;;
36787;SDS011;22738;45.560;9.434;2022-09-12T05:38:34;1.88;;;1.42;;
36787;SDS011;22738;45.560;9.434;2022-09-12T05:45:17;2.45;;;1.50;;
36787;SDS011;22738;45.560;9.434;2022-09-12T05:51:58;1.83;;;1.40;;
36787;SDS011;22738;45.560;9.434;2022-09-12T05:58:41;1.95;;;1.40;;
36787;SDS011;22738;45.560;9.434;2022-09-12T06:05:27;5.55;;;1.48;;
36787;SDS011;22738;45.560;9.434;2022-09-12T06:12:08;3.17;;;1.00;;
36787;SDS011;22738;45.560;9.434;2022-09-12T06:18:52;3.25;;;1.77;;
36787;SDS011;22738;45.560;9.434;2022-09-12T06:25:35;4.20;;;1.10;;
36787;SDS011;22738;45.560;9.434;2022-09-12T06:32:16;1.73;;;0.95;;
36787;SDS011;22738;45.560;9.434;2022-09-12T06:39:02;4.05;;;1.10;;
36787;SDS011;22738;45.560;9.434;2022-09-12T06:45:50;1.17;;;0.82;;
36787;SDS011;22738;45.560;9.434;2022-09-12T06:52:31;1.63;;;0.70;;
36787;SDS011;22738;45.560;9.434;2022-09-12T06:59:12;2.83;;;1.00;;
36787;SDS011;22738;45.560;9.434;2022-09-12T07:05:53;2.05;;;0.60;;
36787;SDS011;22738;45.560;9.434;2022-09-12T07:12:35;9.40;;;1.05;;
36787;SDS011;22738;45.560;9.434;2022-09-12T07:19:16;1.17;;;0.63;;
36787;SDS011;22738;45.560;9.434;2022-09-12T07:25:57;1.73;;;1.00;;
36787;SDS011;22738;45.560;9.434;2022-09-12T07:32:40;4.15;;;0.90;;
36787;SDS011;22738;45.560;9.434;2022-09-12T07:39:21;4.80;;;0.80;;
36787;SDS011;22738;45.560;9.434;2022-09-12T07:46:02;1.90;;;0.73;;
36787;SDS011;22738;45.560;9.434;2022-09-12T07:52:43;5.78;;;1.00;;
36787;SDS011;22738;45.560;9.434;2022-09-12T07:59:24;7.93;;;1.10;;
36787;SDS011;22738;45.560;9.434;2022-09-12T08:06:09;1.15;;;0.85;;
36787;SDS011;22738;45.560;9.434;2022-09-12T08:12:56;2.30;;;1.20;;
36787;SDS011;22738;45.560;9.434;2022-09-12T08:19:38;3.10;;;1.75;;
36787;SDS011;22738;45.560;9.434;2022-09-12T08:26:19;2.97;;;1.52;;
36787;SDS011;22738;45.560;9.434;2022-09-12T08:33:01;4.70;;;1.45;;
36787;SDS011;22738;45.560;9.434;2022-09-12T08:39:42;4.00;;;1.50;;
36787;SDS011;22738;45.560;9.434;2022-09-12T08:46:27;3.17;;;1.00;;
36787;SDS011;22738;45.560;9.434;2022-09-12T08:53:31;3.10;;;1.20;;
36787;SDS011;22738;45.560;9.434;2022-09-12T09:00:15;5.28;;;1.70;;
36787;SDS011;22738;45.560;9.434;2022-09-12T09:21:28;15.77;;;3.45;;
36787;SDS011;22738;45.560;9.434;2022-09-12T09:28:15;5.38;;;2.95;;
36787;SDS011;22738;45.560;9.434;2022-09-12T09:35:26;4.50;;;2.30;;
36787;SDS011;22738;45.560;9.434;2022-09-12T09:49:04;6.25;;;2.63;;
36787;SDS011;22738;45.560;9.434;2022-09-12T09:55:46;4.37;;;2.80;;
36787;SDS011;22738;45.560;9.434;2022-09-12T10:02:28;3.90;;;2.63;;
36787;SDS011;22738;45.560;9.434;2022-09-12T10:15:56;2.95;;;1.90;;
36787;SDS011;22738;45.560;9.434;2022-09-12T10:22:39;2.40;;;1.42;;
36787;SDS011;22738;45.560;9.434;2022-09-12T10:29:24;5.13;;;1.80;;
36787;SDS011;22738;45.560;9.434;2022-09-12T10:36:11;4.80;;;2.00;;
36787;SDS011;22738;45.560;9.434;2022-09-12T10:49:37;6.95;;;2.95;;
36787;SDS011;22738;45.560;9.434;2022-09-12T10:56:23;2.72;;;1.50;;
36787;SDS011;22738;45.560;9.434;2022-09-12T11:03:14;7.13;;;2.53;;
36787;SDS011;22738;45.560;9.434;2022-09-12T11:17:26;2.40;;;1.70;;
36787;SDS011;22738;45.560;9.434;2022-09-12T11:24:35;2.47;;;1.55;;
36787;SDS011;22738;45.560;9.434;2022-09-12T11:31:33;1.65;;;1.15;;
36787;SDS011;22738;45.560;9.434;2022-09-12T11:45:12;2.72;;;1.60;;
36787;SDS011;22738;45.560;9.434;2022-09-12T11:58:38;2.42;;;1.30;;
36787;SDS011;22738;45.560;9.434;2022-09-12T12:05:28;2.38;;;1.63;;
36787;SDS011;22738;45.560;9.434;2022-09-12T12:12:12;4.55;;;1.73;;
36787;SDS011;22738;45.560;9.434;2022-09-12T12:18:59;3.05;;;2.20;;
36787;SDS011;22738;45.560;9.434;2022-09-12T12:25:51;2.60;;;1.30;;
36787;SDS011;22738;45.560;9.434;2022-09-12T12:32:34;1.73;;;1.27;;
36787;SDS011;22738;45.560;9.434;2022-09-12T12:46:12;1.75;;;1.00;;
36787;SDS011;22738;45.560;9.434;2022-09-12T12:52:56;6.10;;;1.67;;
36787;SDS011;22738;45.560;9.434;2022-09-12T12:59:48;3.50;;;1.48;;
36787;SDS011;22738;45.560;9.434;2022-09-12T13:06:37;4.55;;;2.47;;
36787;SDS011;22738;45.560;9.434;2022-09-12T13:13:31;2.25;;;1.30;;
36787;SDS011;22738;45.560;9.434;2022-09-12T13:20:20;2.33;;;1.25;;
36787;SDS011;22738;45.560;9.434;2022-09-12T13:27:13;3.55;;;1.52;;
36787;SDS011;22738;45.560;9.434;2022-09-12T13:33:58;1.60;;;1.25;;
36787;SDS011;22738;45.560;9.434;2022-09-12T13:47:29;3.08;;;1.40;;
36787;SDS011;22738;45.560;9.434;2022-09-12T13:54:16;2.17;;;1.20;;
36787;SDS011;22738;45.560;9.434;2022-09-12T14:01:02;4.03;;;1.55;;
36787;SDS011;22738;45.560;9.434;2022-09-12T14:07:55;6.57;;;2.00;;
36787;SDS011;22738;45.560;9.434;2022-09-12T14:14:39;6.72;;;1.33;;
36787;SDS011;22738;45.560;9.434;2022-09-12T14:21:33;2.85;;;1.40;;
36787;SDS011;22738;45.560;9.434;2022-09-12T14:28:16;2.13;;;1.35;;
36787;SDS011;22738;45.560;9.434;2022-09-12T14:41:59;1.25;;;1.08;;
36787;SDS011;22738;45.560;9.434;2022-09-12T14:48:45;3.33;;;1.70;;
36787;SDS011;22738;45.560;9.434;2022-09-12T14:55:31;1.58;;;1.08;;
36787;SDS011;22738;45.560;9.434;2022-09-12T15:02:17;2.50;;;1.30;;
36787;SDS011;22738;45.560;9.434;2022-09-12T15:09:04;2.90;;;1.40;;
36787;SDS011;22738;45.560;9.434;2022-09-12T15:15:49;1.17;;;0.95;;
36787;SDS011;22738;45.560;9.434;2022-09-12T15:22:32;4.82;;;1.20;;
36787;SDS011;22738;45.560;9.434;2022-09-12T15:29:14;2.17;;;0.90;;
36787;SDS011;22738;45.560;9.434;2022-09-12T15:35:55;2.58;;;1.52;;
36787;SDS011;22738;45.560;9.434;2022-09-12T15:42:36;1.20;;;1.08;;
36787;SDS011;22738;45.560;9.434;2022-09-12T15:49:17;3.45;;;1.27;;
36787;SDS011;22738;45.560;9.434;2022-09-12T15:55:58;3.83;;;1.65;;
36787;SDS011;22738;45.560;9.434;2022-09-12T16:02:40;1.60;;;1.00;;
36787;SDS011;22738;45.560;9.434;2022-09-12T16:09:21;2.15;;;1.30;;
36787;SDS011;22738;45.560;9.434;2022-09-12T16:16:03;3.42;;;1.65;;
36787;SDS011;22738;45.560;9.434;2022-09-12T16:22:45;1.20;;;0.90;;
36787;SDS011;22738;45.560;9.434;2022-09-12T16:29:28;5.17;;;1.87;;
36787;SDS011;22738;45.560;9.434;2022-09-12T16:36:11;3.53;;;1.33;;
36787;SDS011;22738;45.560;9.434;2022-09-12T16:42:54;1.95;;;1.10;;
36787;SDS011;22738;45.560;9.434;2022-09-12T16:49:35;1.65;;;1.23;;
36787;SDS011;22738;45.560;9.434;2022-09-12T16:56:16;1.10;;;0.95;;
36787;SDS011;22738;45.560;9.434;2022-09-12T17:02:58;2.53;;;1.30;;
36787;SDS011;22738;45.560;9.434;2022-09-12T17:09:40;2.78;;;1.55;;
36787;SDS011;22738;45.560;9.434;2022-09-12T17:16:22;1.42;;;1.00;;
36787;SDS011;22738;45.560;9.434;2022-09-12T17:23:03;1.67;;;1.05;;
36787;SDS011;22738;45.560;9.434;2022-09-12T17:29:44;2.10;;;1.20;;
36787;SDS011;22738;45.560;9.434;2022-09-12T17:36:26;4.40;;;1.55;;
36787;SDS011;22738;45.560;9.434;2022-09-12T17:43:08;1.38;;;1.20;;
36787;SDS011;22738;45.560;9.434;2022-09-12T17:49:51;3.65;;;1.40;;
36787;SDS011;22738;45.560;9.434;2022-09-12T17:56:34;4.53;;;1.25;;
36787;SDS011;22738;45.560;9.434;2022-09-12T18:03:18;9.68;;;2.72;;
36787;SDS011;22738;45.560;9.434;2022-09-12T18:10:01;9.13;;;2.17;;
36787;SDS011;22738;45.560;9.434;2022-09-12T18:16:42;7.80;;;2.03;;
36787;SDS011;22738;45.560;9.434;2022-09-12T18:23:23;6.88;;;1.85;;
36787;SDS011;22738;45.560;9.434;2022-09-12T18:30:04;13.25;;;2.08;;
36787;SDS011;22738;45.560;9.434;2022-09-12T18:36:47;13.38;;;3.47;;
36787;SDS011;22738;45.560;9.434;2022-09-12T18:50:11;8.35;;;2.75;;
36787;SDS011;22738;45.560;9.434;2022-09-12T18:56:52;9.52;;;3.40;;
36787;SDS011;22738;45.560;9.434;2022-09-12T19:03:33;9.50;;;2.10;;
36787;SDS011;22738;45.560;9.434;2022-09-12T19:10:14;5.80;;;2.53;;
36787;SDS011;22738;45.560;9.434;2022-09-12T19:16:55;6.43;;;2.75;;
36787;SDS011;22738;45.560;9.434;2022-09-12T19:23:36;13.05;;;2.80;;
36787;SDS011;22738;45.560;9.434;2022-09-12T19:30:17;6.07;;;2.30;;
36787;SDS011;22738;45.560;9.434;2022-09-12T19:36:58;5.20;;;2.30;;
36787;SDS011;22738;45.560;9.434;2022-09-12T19:43:39;4.03;;;2.65;;
36787;SDS011;22738;45.560;9.434;2022-09-12T19:50:20;3.13;;;2.20;;
36787;SDS011;22738;45.560;9.434;2022-09-12T19:57:02;6.45;;;2.67;;
36787;SDS011;22738;45.560;9.434;2022-09-12T20:03:43;4.18;;;2.45;;
36787;SDS011;22738;45.560;9.434;2022-09-12T20:10:25;8.18;;;2.78;;
36787;SDS011;22738;45.560;9.434;2022-09-12T20:17:06;13.13;;;3.35;;
36787;SDS011;22738;45.560;9.434;2022-09-12T20:23:47;9.60;;;3.70;;
36787;SDS011;22738;45.560;9.434;2022-09-12T20:30:29;8.10;;;3.80;;
36787;SDS011;22738;45.560;9.434;2022-09-12T20:37:10;7.38;;;4.53;;
36787;SDS011;22738;45.560;9.434;2022-09-12T20:43:51;7.35;;;4.15;;
36787;SDS011;22738;45.560;9.434;2022-09-12T20:50:33;6.93;;;4.72;;
36787;SDS011;22738;45.560;9.434;2022-09-12T20:57:14;10.55;;;5.85;;
36787;SDS011;22738;45.560;9.434;2022-09-12T21:03:55;8.60;;;4.90;;
36787;SDS011;22738;45.560;9.434;2022-09-12T21:10:40;7.95;;;4.43;;
36787;SDS011;22738;45.560;9.434;2022-09-12T21:17:22;6.97;;;4.47;;
36787;SDS011;22738;45.560;9.434;2022-09-12T21:24:03;8.50;;;3.67;;
36787;SDS011;22738;45.560;9.434;2022-09-12T21:30:48;7.57;;;4.47;;
36787;SDS011;22738;45.560;9.434;2022-09-12T21:37:30;6.28;;;3.53;;
36787;SDS011;22738;45.560;9.434;2022-09-12T21:44:11;6.70;;;3.97;;
36787;SDS011;22738;45.560;9.434;2022-09-12T21:50:53;6.85;;;3.88;;
36787;SDS011;22738;45.560;9.434;2022-09-12T21:57:38;4.05;;;3.00;;
36787;SDS011;22738;45.560;9.434;2022-09-12T22:04:19;6.60;;;3.58;;
36787;SDS011;22738;45.560;9.434;2022-09-12T22:11:01;6.57;;;3.97;;
36787;SDS011;22738;45.560;9.434;2022-09-12T22:17:44;6.33;;;3.90;;
36787;SDS011;22738;45.560;9.434;2022-09-12T22:24:25;8.00;;;4.10;;
36787;SDS011;22738;45.560;9.434;2022-09-12T22:37:51;8.75;;;3.80;;
36787;SDS011;22738;45.560;9.434;2022-09-12T22:44:32;5.50;;;3.60;;
36787;SDS011;22738;45.560;9.434;2022-09-12T22:51:13;4.80;;;3.85;;
36787;SDS011;22738;45.560;9.434;2022-09-12T22:57:54;4.68;;;3.40;;
36787;SDS011;22738;45.560;9.434;2022-09-12T23:04:35;5.85;;;3.63;;
36787;SDS011;22738;45.560;9.434;2022-09-12T23:11:17;5.63;;;3.55;;
36787;SDS011;22738;45.560;9.434;2022-09-12T23:24:42;10.70;;;4.88;;
36787;SDS011;22738;45.560;9.434;2022-09-12T23:31:24;6.45;;;4.18;;
36787;SDS011;22738;45.560;9.434;2022-09-12T23:38:09;7.43;;;4.25;;
36787;SDS011;22738;45.560;9.434;2022-09-12T23:44:50;6.78;;;4.10;;
36787;SDS011;22738;45.560;9.434;2022-09-12T23:51:31;11.63;;;4.57;;
36787;SDS011;22738;45.560;9.434;2022-09-12T23:58:12;10.15;;;6.80;;
